sensor_id;sensor_type;location;lat;lon;timestamp;temperature;humidity
13123;DHT22;6627;50.920;12.050;2023-07-08T00:01:18;14.50;99.90
13123;DHT22;6627;50.920;12.050;2023-07-08T00:03:49;14.50;99.90
13123;DHT22;6627;50.920;12.050;2023-07-08T00:06:18;14.70;99.90
13123;DHT22;6627;50.920;12.050;2023-07-08T00:08:47;14.90;99.90
13123;DHT22;6627;50.920;12.050;2023-07-08T00:11:16;14.60;99.90
13123;DHT22;6627;50.920;12.050;2023-07-08T00:13:44;14.50;99.90
13123;DHT22;6627;50.920;12.050;2023-07-08T00:16:14;14.20;99.90
13123;DHT22;6627;50.920;12.050;2023-07-08T00:18:44;14.20;99.90
13123;DHT22;6627;50.920;12.050;2023-07-08T00:21:16;14.20;99.90
13123;DHT22;6627;50.920;12.050;2023-07-08T00:23:45;14.10;99.90
13123;DHT22;6627;50.920;12.050;2023-07-08T00:28:47;13.90;99.90
13123;DHT22;6627;50.920;12.050;2023-07-08T00:31:16;13.90;99.90
13123;DHT22;6627;50.920;12.050;2023-07-08T00:33:49;13.90;99.90
13123;DHT22;6627;50.920;12.050;2023-07-08T00:36:17;13.80;99.90
13123;DHT22;6627;50.920;12.050;2023-07-08T00:38:44;13.80;99.90
13123;DHT22;6627;50.920;12.050;2023-07-08T00:41:16;13.80;99.90
13123;DHT22;6627;50.920;12.050;2023-07-08T00:43:50;13.80;99.90
13123;DHT22;6627;50.920;12.050;2023-07-08T00:46:33;14.00;99.90
13123;DHT22;6627;50.920;12.050;2023-07-08T00:49:20;13.90;99.90
13123;DHT22;6627;50.920;12.050;2023-07-08T00:51:53;13.70;99.90
13123;DHT22;6627;50.920;12.050;2023-07-08T00:54:21;13.70;99.90
13123;DHT22;6627;50.920;12.050;2023-07-08T00:56:51;13.70;99.90
13123;DHT22;6627;50.920;12.050;2023-07-08T00:59:26;13.90;99.90
13123;DHT22;6627;50.920;12.050;2023-07-08T01:02:02;14.20;99.90
13123;DHT22;6627;50.920;12.050;2023-07-08T01:04:37;14.10;99.90
13123;DHT22;6627;50.920;12.050;2023-07-08T01:07:09;13.90;99.90
13123;DHT22;6627;50.920;12.050;2023-07-08T01:09:41;13.80;99.90
13123;DHT22;6627;50.920;12.050;2023-07-08T01:12:16;13.70;99.90
13123;DHT22;6627;50.920;12.050;2023-07-08T01:14:48;13.70;99.90
13123;DHT22;6627;50.920;12.050;2023-07-08T01:17:22;13.70;99.90
13123;DHT22;6627;50.920;12.050;2023-07-08T01:19:50;13.60;99.90
13123;DHT22;6627;50.920;12.050;2023-07-08T01:22:21;13.60;99.90
13123;DHT22;6627;50.920;12.050;2023-07-08T01:24:49;13.80;99.90
13123;DHT22;6627;50.920;12.050;2023-07-08T01:27:18;14.00;99.90
13123;DHT22;6627;50.920;12.050;2023-07-08T01:29:46;13.80;99.90
13123;DHT22;6627;50.920;12.050;2023-07-08T01:32:15;13.60;99.90
13123;DHT22;6627;50.920;12.050;2023-07-08T01:34:46;13.60;99.90
13123;DHT22;6627;50.920;12.050;2023-07-08T01:37:30;13.70;99.90
13123;DHT22;6627;50.920;12.050;2023-07-08T01:40:23;13.60;99.90
13123;DHT22;6627;50.920;12.050;2023-07-08T01:42:54;13.70;99.90
13123;DHT22;6627;50.920;12.050;2023-07-08T01:45:23;13.70;99.90
13123;DHT22;6627;50.920;12.050;2023-07-08T01:47:56;13.60;99.90
13123;DHT22;6627;50.920;12.050;2023-07-08T01:50:27;13.60;99.90
13123;DHT22;6627;50.920;12.050;2023-07-08T01:52:59;13.50;99.90
13123;DHT22;6627;50.920;12.050;2023-07-08T01:55:29;13.40;99.90
13123;DHT22;6627;50.920;12.050;2023-07-08T01:57:56;13.30;99.90
13123;DHT22;6627;50.920;12.050;2023-07-08T02:00:23;13.40;99.90
13123;DHT22;6627;50.920;12.050;2023-07-08T02:02:51;13.40;99.90
13123;DHT22;6627;50.920;12.050;2023-07-08T02:05:18;13.30;99.90
13123;DHT22;6627;50.920;12.050;2023-07-08T02:07:45;13.10;99.90
13123;DHT22;6627;50.920;12.050;2023-07-08T02:10:14;13.10;99.90
13123;DHT22;6627;50.920;12.050;2023-07-08T02:12:42;13.20;99.90
13123;DHT22;6627;50.920;12.050;2023-07-08T02:15:09;13.20;99.90
13123;DHT22;6627;50.920;12.050;2023-07-08T02:17:37;13.30;99.90
13123;DHT22;6627;50.920;12.050;2023-07-08T02:20:05;13.20;99.90
13123;DHT22;6627;50.920;12.050;2023-07-08T02:22:34;13.10;99.90
13123;DHT22;6627;50.920;12.050;2023-07-08T02:25:02;13.00;99.90
13123;DHT22;6627;50.920;12.050;2023-07-08T02:27:32;12.90;99.90
13123;DHT22;6627;50.920;12.050;2023-07-08T02:29:59;12.80;99.90
13123;DHT22;6627;50.920;12.050;2023-07-08T02:32:27;12.80;99.90
13123;DHT22;6627;50.920;12.050;2023-07-08T02:34:55;12.70;99.90
13123;DHT22;6627;50.920;12.050;2023-07-08T02:37:22;12.80;99.90
13123;DHT22;6627;50.920;12.050;2023-07-08T02:39:49;12.80;99.90
13123;DHT22;6627;50.920;12.050;2023-07-08T02:42:16;12.70;99.90
13123;DHT22;6627;50.920;12.050;2023-07-08T02:44:45;12.70;99.90
13123;DHT22;6627;50.920;12.050;2023-07-08T02:47:12;12.60;99.90
13123;DHT22;6627;50.920;12.050;2023-07-08T02:49:39;12.60;99.90
13123;DHT22;6627;50.920;12.050;2023-07-08T02:52:06;12.60;99.90
13123;DHT22;6627;50.920;12.050;2023-07-08T02:57:01;12.80;99.90
13123;DHT22;6627;50.920;12.050;2023-07-08T02:59:29;12.60;99.90
13123;DHT22;6627;50.920;12.050;2023-07-08T03:01:58;12.60;99.90
13123;DHT22;6627;50.920;12.050;2023-07-08T03:04:25;12.40;99.90
13123;DHT22;6627;50.920;12.050;2023-07-08T03:06:52;12.30;99.90
13123;DHT22;6627;50.920;12.050;2023-07-08T03:09:20;12.30;99.90
13123;DHT22;6627;50.920;12.050;2023-07-08T03:14:14;12.50;99.90
13123;DHT22;6627;50.920;12.050;2023-07-08T03:16:41;12.70;99.90
13123;DHT22;6627;50.920;12.050;2023-07-08T03:19:12;12.60;99.90
13123;DHT22;6627;50.920;12.050;2023-07-08T03:21:40;12.70;99.90
13123;DHT22;6627;50.920;12.050;2023-07-08T03:24:09;12.60;99.90
13123;DHT22;6627;50.920;12.050;2023-07-08T03:26:38;12.40;99.90
13123;DHT22;6627;50.920;12.050;2023-07-08T03:29:09;12.30;99.90
13123;DHT22;6627;50.920;12.050;2023-07-08T03:31:41;12.20;99.90
13123;DHT22;6627;50.920;12.050;2023-07-08T03:34:10;12.10;99.90
13123;DHT22;6627;50.920;12.050;2023-07-08T03:36:41;12.10;99.90
13123;DHT22;6627;50.920;12.050;2023-07-08T03:39:15;12.10;99.90
13123;DHT22;6627;50.920;12.050;2023-07-08T03:41:44;12.10;99.90
13123;DHT22;6627;50.920;12.050;2023-07-08T03:44:12;12.10;99.90
13123;DHT22;6627;50.920;12.050;2023-07-08T03:46:42;12.10;99.90
13123;DHT22;6627;50.920;12.050;2023-07-08T03:49:12;12.30;99.90
13123;DHT22;6627;50.920;12.050;2023-07-08T03:54:10;12.50;99.90
13123;DHT22;6627;50.920;12.050;2023-07-08T03:56:39;12.80;99.90
13123;DHT22;6627;50.920;12.050;2023-07-08T03:59:06;12.70;99.90
13123;DHT22;6627;50.920;12.050;2023-07-08T04:01:34;12.60;99.90
13123;DHT22;6627;50.920;12.050;2023-07-08T04:04:01;12.50;99.90
13123;DHT22;6627;50.920;12.050;2023-07-08T04:06:30;12.50;99.90
13123;DHT22;6627;50.920;12.050;2023-07-08T04:09:00;12.60;99.90
13123;DHT22;6627;50.920;12.050;2023-07-08T04:11:27;12.80;99.90
13123;DHT22;6627;50.920;12.050;2023-07-08T04:13:54;12.80;99.90
13123;DHT22;6627;50.920;12.050;2023-07-08T04:16:24;13.00;99.90
13123;DHT22;6627;50.920;12.050;2023-07-08T04:18:55;13.30;99.90
13123;DHT22;6627;50.920;12.050;2023-07-08T04:21:23;13.50;99.90
13123;DHT22;6627;50.920;12.050;2023-07-08T04:23:53;13.50;99.90
13123;DHT22;6627;50.920;12.050;2023-07-08T04:26:20;13.70;99.90
13123;DHT22;6627;50.920;12.050;2023-07-08T04:28:48;13.70;99.90
13123;DHT22;6627;50.920;12.050;2023-07-08T04:31:15;13.80;99.90
13123;DHT22;6627;50.920;12.050;2023-07-08T04:33:42;14.00;99.90
13123;DHT22;6627;50.920;12.050;2023-07-08T04:36:12;14.10;99.90
13123;DHT22;6627;50.920;12.050;2023-07-08T04:38:40;14.10;99.90
13123;DHT22;6627;50.920;12.050;2023-07-08T04:41:13;14.10;99.90
13123;DHT22;6627;50.920;12.050;2023-07-08T04:43:40;14.20;99.90
13123;DHT22;6627;50.920;12.050;2023-07-08T04:46:17;14.20;99.90
13123;DHT22;6627;50.920;12.050;2023-07-08T04:48:46;14.30;99.90
13123;DHT22;6627;50.920;12.050;2023-07-08T04:51:13;14.30;99.90
13123;DHT22;6627;50.920;12.050;2023-07-08T04:53:41;14.30;99.90
13123;DHT22;6627;50.920;12.050;2023-07-08T04:56:08;14.30;99.90
13123;DHT22;6627;50.920;12.050;2023-07-08T04:58:36;14.20;99.90
13123;DHT22;6627;50.920;12.050;2023-07-08T05:01:04;14.40;99.90
13123;DHT22;6627;50.920;12.050;2023-07-08T05:03:31;14.60;99.90
13123;DHT22;6627;50.920;12.050;2023-07-08T05:05:58;14.70;99.90
13123;DHT22;6627;50.920;12.050;2023-07-08T05:08:25;14.80;99.90
13123;DHT22;6627;50.920;12.050;2023-07-08T05:10:52;14.70;99.90
13123;DHT22;6627;50.920;12.050;2023-07-08T05:13:19;14.80;99.90
13123;DHT22;6627;50.920;12.050;2023-07-08T05:18:16;14.80;99.90
13123;DHT22;6627;50.920;12.050;2023-07-08T05:20:50;14.90;99.90
13123;DHT22;6627;50.920;12.050;2023-07-08T05:23:17;15.10;99.90
13123;DHT22;6627;50.920;12.050;2023-07-08T05:25:45;15.20;99.90
13123;DHT22;6627;50.920;12.050;2023-07-08T05:28:12;15.40;99.90
13123;DHT22;6627;50.920;12.050;2023-07-08T05:30:40;15.50;99.90
13123;DHT22;6627;50.920;12.050;2023-07-08T05:33:09;15.60;99.90
13123;DHT22;6627;50.920;12.050;2023-07-08T05:35:36;15.50;99.90
13123;DHT22;6627;50.920;12.050;2023-07-08T05:40:31;15.90;99.90
13123;DHT22;6627;50.920;12.050;2023-07-08T05:42:58;15.90;99.90
13123;DHT22;6627;50.920;12.050;2023-07-08T05:45:25;16.00;99.90
13123;DHT22;6627;50.920;12.050;2023-07-08T05:47:52;16.00;99.90
13123;DHT22;6627;50.920;12.050;2023-07-08T05:50:21;16.20;99.90
13123;DHT22;6627;50.920;12.050;2023-07-08T05:55:16;16.20;99.90
13123;DHT22;6627;50.920;12.050;2023-07-08T05:57:43;16.30;99.90
13123;DHT22;6627;50.920;12.050;2023-07-08T06:00:11;16.50;99.90
13123;DHT22;6627;50.920;12.050;2023-07-08T06:02:38;16.60;99.90
13123;DHT22;6627;50.920;12.050;2023-07-08T06:05:06;16.70;99.90
13123;DHT22;6627;50.920;12.050;2023-07-08T06:07:35;16.90;99.90
13123;DHT22;6627;50.920;12.050;2023-07-08T06:10:03;17.00;99.90
13123;DHT22;6627;50.920;12.050;2023-07-08T06:12:31;17.30;99.90
13123;DHT22;6627;50.920;12.050;2023-07-08T06:19:54;17.90;99.90
13123;DHT22;6627;50.920;12.050;2023-07-08T06:22:21;17.90;99.90
13123;DHT22;6627;50.920;12.050;2023-07-08T06:27:17;18.30;99.90
13123;DHT22;6627;50.920;12.050;2023-07-08T06:29:44;18.40;99.90
13123;DHT22;6627;50.920;12.050;2023-07-08T06:32:12;18.60;99.90
13123;DHT22;6627;50.920;12.050;2023-07-08T06:34:39;18.70;99.90
13123;DHT22;6627;50.920;12.050;2023-07-08T06:37:06;18.80;99.90
13123;DHT22;6627;50.920;12.050;2023-07-08T06:39:33;19.00;99.90
13123;DHT22;6627;50.920;12.050;2023-07-08T06:44:30;19.40;99.90
13123;DHT22;6627;50.920;12.050;2023-07-08T06:46:57;19.60;99.90
13123;DHT22;6627;50.920;12.050;2023-07-08T06:51:52;20.20;99.90
13123;DHT22;6627;50.920;12.050;2023-07-08T06:54:19;20.40;99.90
13123;DHT22;6627;50.920;12.050;2023-07-08T06:56:46;20.50;99.90
13123;DHT22;6627;50.920;12.050;2023-07-08T06:59:15;20.80;99.90
13123;DHT22;6627;50.920;12.050;2023-07-08T07:01:42;21.10;99.90
13123;DHT22;6627;50.920;12.050;2023-07-08T07:04:09;21.30;99.90
13123;DHT22;6627;50.920;12.050;2023-07-08T07:06:36;21.60;99.90
13123;DHT22;6627;50.920;12.050;2023-07-08T07:09:03;21.90;99.90
13123;DHT22;6627;50.920;12.050;2023-07-08T07:11:30;21.90;99.90
13123;DHT22;6627;50.920;12.050;2023-07-08T07:13:57;22.20;99.90
13123;DHT22;6627;50.920;12.050;2023-07-08T07:16:26;22.20;99.90
13123;DHT22;6627;50.920;12.050;2023-07-08T07:21:21;22.70;99.90
13123;DHT22;6627;50.920;12.050;2023-07-08T07:23:48;23.00;99.90
13123;DHT22;6627;50.920;12.050;2023-07-08T07:28:43;23.40;99.90
13123;DHT22;6627;50.920;12.050;2023-07-08T07:31:10;23.30;99.90
13123;DHT22;6627;50.920;12.050;2023-07-08T07:33:39;24.00;99.90
13123;DHT22;6627;50.920;12.050;2023-07-08T07:38:34;24.00;99.90
13123;DHT22;6627;50.920;12.050;2023-07-08T07:43:32;24.50;99.90
13123;DHT22;6627;50.920;12.050;2023-07-08T07:46:00;24.70;99.90
13123;DHT22;6627;50.920;12.050;2023-07-08T07:48:28;24.80;99.90
13123;DHT22;6627;50.920;12.050;2023-07-08T07:50:57;24.90;99.90
13123;DHT22;6627;50.920;12.050;2023-07-08T07:53:24;25.10;99.90
13123;DHT22;6627;50.920;12.050;2023-07-08T07:55:56;25.10;99.90
13123;DHT22;6627;50.920;12.050;2023-07-08T07:58:24;25.30;99.90
13123;DHT22;6627;50.920;12.050;2023-07-08T08:00:52;25.80;99.90
13123;DHT22;6627;50.920;12.050;2023-07-08T08:03:19;25.60;99.90
13123;DHT22;6627;50.920;12.050;2023-07-08T08:05:47;25.80;99.90
13123;DHT22;6627;50.920;12.050;2023-07-08T08:08:16;26.10;99.90
13123;DHT22;6627;50.920;12.050;2023-07-08T08:10:43;26.30;99.90
13123;DHT22;6627;50.920;12.050;2023-07-08T08:13:11;26.50;99.90
13123;DHT22;6627;50.920;12.050;2023-07-08T08:15:38;26.90;99.90
13123;DHT22;6627;50.920;12.050;2023-07-08T08:18:05;26.50;99.90
13123;DHT22;6627;50.920;12.050;2023-07-08T08:20:32;26.50;99.90
13123;DHT22;6627;50.920;12.050;2023-07-08T08:27:56;25.90;99.90
13123;DHT22;6627;50.920;12.050;2023-07-08T08:30:23;25.80;99.90
13123;DHT22;6627;50.920;12.050;2023-07-08T08:32:50;25.80;99.90
13123;DHT22;6627;50.920;12.050;2023-07-08T08:35:17;25.80;99.90
13123;DHT22;6627;50.920;12.050;2023-07-08T08:37:45;25.80;99.90
13123;DHT22;6627;50.920;12.050;2023-07-08T08:40:14;25.50;99.90
13123;DHT22;6627;50.920;12.050;2023-07-08T08:42:49;25.30;99.90
13123;DHT22;6627;50.920;12.050;2023-07-08T08:45:21;25.10;99.90
13123;DHT22;6627;50.920;12.050;2023-07-08T08:47:53;25.00;99.90
13123;DHT22;6627;50.920;12.050;2023-07-08T08:50:32;25.30;99.90
13123;DHT22;6627;50.920;12.050;2023-07-08T08:53:12;25.80;99.90
13123;DHT22;6627;50.920;12.050;2023-07-08T08:55:42;26.30;99.90
13123;DHT22;6627;50.920;12.050;2023-07-08T08:58:18;26.50;99.90
13123;DHT22;6627;50.920;12.050;2023-07-08T09:00:58;26.80;99.90
13123;DHT22;6627;50.920;12.050;2023-07-08T09:06:11;27.40;99.90
13123;DHT22;6627;50.920;12.050;2023-07-08T09:08:40;27.80;99.90
13123;DHT22;6627;50.920;12.050;2023-07-08T09:11:21;27.90;99.90
13123;DHT22;6627;50.920;12.050;2023-07-08T09:13:54;28.10;99.90
13123;DHT22;6627;50.920;12.050;2023-07-08T09:16:29;27.80;99.90
13123;DHT22;6627;50.920;12.050;2023-07-08T09:19:11;27.80;99.90
13123;DHT22;6627;50.920;12.050;2023-07-08T09:21:44;27.90;99.90
13123;DHT22;6627;50.920;12.050;2023-07-08T09:24:17;28.10;99.90
13123;DHT22;6627;50.920;12.050;2023-07-08T09:26:50;28.30;99.90
13123;DHT22;6627;50.920;12.050;2023-07-08T09:29:22;28.40;99.90
13123;DHT22;6627;50.920;12.050;2023-07-08T09:31:49;28.50;99.90
13123;DHT22;6627;50.920;12.050;2023-07-08T09:34:20;28.30;99.90
13123;DHT22;6627;50.920;12.050;2023-07-08T09:36:51;28.40;99.90
13123;DHT22;6627;50.920;12.050;2023-07-08T09:39:20;28.40;99.80
13123;DHT22;6627;50.920;12.050;2023-07-08T09:41:49;28.50;99.10
13123;DHT22;6627;50.920;12.050;2023-07-08T09:44:23;28.50;96.50
13123;DHT22;6627;50.920;12.050;2023-07-08T09:46:55;28.70;95.80
13123;DHT22;6627;50.920;12.050;2023-07-08T09:49:28;28.80;96.80
13123;DHT22;6627;50.920;12.050;2023-07-08T09:51:58;29.00;97.00
13123;DHT22;6627;50.920;12.050;2023-07-08T09:54:26;29.00;94.70
13123;DHT22;6627;50.920;12.050;2023-07-08T09:57:03;29.20;98.40
13123;DHT22;6627;50.920;12.050;2023-07-08T09:59:43;29.50;95.10
13123;DHT22;6627;50.920;12.050;2023-07-08T10:04:56;29.70;99.90
13123;DHT22;6627;50.920;12.050;2023-07-08T10:12:30;29.80;91.80
13123;DHT22;6627;50.920;12.050;2023-07-08T10:15:07;29.60;90.80
13123;DHT22;6627;50.920;12.050;2023-07-08T10:17:43;29.40;88.40
13123;DHT22;6627;50.920;12.050;2023-07-08T10:20:12;29.20;83.90
13123;DHT22;6627;50.920;12.050;2023-07-08T10:22:45;29.60;92.80
13123;DHT22;6627;50.920;12.050;2023-07-08T10:25:28;29.70;86.10
13123;DHT22;6627;50.920;12.050;2023-07-08T10:36:49;29.90;74.90
13123;DHT22;6627;50.920;12.050;2023-07-08T10:39:42;30.10;65.00
13123;DHT22;6627;50.920;12.050;2023-07-08T10:42:35;30.10;58.90
13123;DHT22;6627;50.920;12.050;2023-07-08T10:45:15;30.20;64.60
13123;DHT22;6627;50.920;12.050;2023-07-08T10:47:57;30.10;54.20
13123;DHT22;6627;50.920;12.050;2023-07-08T10:50:48;30.10;51.30
13123;DHT22;6627;50.920;12.050;2023-07-08T10:53:35;29.80;54.50
13123;DHT22;6627;50.920;12.050;2023-07-08T10:58:52;29.60;58.40
13123;DHT22;6627;50.920;12.050;2023-07-08T11:01:41;29.60;59.60
13123;DHT22;6627;50.920;12.050;2023-07-08T11:04:29;29.60;59.70
13123;DHT22;6627;50.920;12.050;2023-07-08T11:07:11;29.50;58.30
13123;DHT22;6627;50.920;12.050;2023-07-08T11:09:49;29.50;61.60
13123;DHT22;6627;50.920;12.050;2023-07-08T11:12:24;29.50;56.60
13123;DHT22;6627;50.920;12.050;2023-07-08T11:14:59;29.60;62.70
13123;DHT22;6627;50.920;12.050;2023-07-08T11:17:38;30.00;59.90
13123;DHT22;6627;50.920;12.050;2023-07-08T11:20:16;30.20;59.80
13123;DHT22;6627;50.920;12.050;2023-07-08T11:22:53;30.30;58.50
13123;DHT22;6627;50.920;12.050;2023-07-08T11:25:25;30.50;63.80
13123;DHT22;6627;50.920;12.050;2023-07-08T11:27:57;30.70;58.90
13123;DHT22;6627;50.920;12.050;2023-07-08T11:30:30;30.70;59.00
13123;DHT22;6627;50.920;12.050;2023-07-08T11:33:08;30.50;58.10
13123;DHT22;6627;50.920;12.050;2023-07-08T11:35:42;30.60;60.70
13123;DHT22;6627;50.920;12.050;2023-07-08T11:38:14;30.90;66.50
13123;DHT22;6627;50.920;12.050;2023-07-08T11:40:51;30.70;57.40
13123;DHT22;6627;50.920;12.050;2023-07-08T11:43:23;30.90;68.30
13123;DHT22;6627;50.920;12.050;2023-07-08T11:45:56;30.90;56.80
13123;DHT22;6627;50.920;12.050;2023-07-08T11:48:27;31.00;57.50
13123;DHT22;6627;50.920;12.050;2023-07-08T11:53:36;30.60;54.80
13123;DHT22;6627;50.920;12.050;2023-07-08T11:56:19;30.70;56.40
13123;DHT22;6627;50.920;12.050;2023-07-08T11:58:58;30.80;55.00
13123;DHT22;6627;50.920;12.050;2023-07-08T12:01:38;30.70;54.80
13123;DHT22;6627;50.920;12.050;2023-07-08T12:04:25;30.30;54.70
13123;DHT22;6627;50.920;12.050;2023-07-08T12:07:30;30.30;54.80
13123;DHT22;6627;50.920;12.050;2023-07-08T12:10:03;30.30;56.80
13123;DHT22;6627;50.920;12.050;2023-07-08T12:12:35;30.40;66.40
13123;DHT22;6627;50.920;12.050;2023-07-08T12:15:12;30.40;54.90
13123;DHT22;6627;50.920;12.050;2023-07-08T12:17:45;30.70;59.30
13123;DHT22;6627;50.920;12.050;2023-07-08T12:20:18;30.80;56.60
13123;DHT22;6627;50.920;12.050;2023-07-08T12:22:51;30.90;57.20
13123;DHT22;6627;50.920;12.050;2023-07-08T12:25:21;31.10;57.50
13123;DHT22;6627;50.920;12.050;2023-07-08T12:27:49;31.00;59.70
13123;DHT22;6627;50.920;12.050;2023-07-08T12:30:18;30.90;55.80
13123;DHT22;6627;50.920;12.050;2023-07-08T12:32:46;30.90;51.50
13123;DHT22;6627;50.920;12.050;2023-07-08T12:35:21;30.90;52.60
13123;DHT22;6627;50.920;12.050;2023-07-08T12:37:53;30.90;49.00
13123;DHT22;6627;50.920;12.050;2023-07-08T12:40:25;31.20;53.70
13123;DHT22;6627;50.920;12.050;2023-07-08T12:42:53;31.20;54.30
13123;DHT22;6627;50.920;12.050;2023-07-08T12:45:23;31.50;55.60
13123;DHT22;6627;50.920;12.050;2023-07-08T12:47:51;31.40;51.20
13123;DHT22;6627;50.920;12.050;2023-07-08T12:50:19;31.40;51.60
13123;DHT22;6627;50.920;12.050;2023-07-08T12:52:47;31.80;49.60
13123;DHT22;6627;50.920;12.050;2023-07-08T12:55:16;31.30;49.80
13123;DHT22;6627;50.920;12.050;2023-07-08T12:57:45;31.30;50.70
13123;DHT22;6627;50.920;12.050;2023-07-08T13:00:18;31.50;49.10
13123;DHT22;6627;50.920;12.050;2023-07-08T13:02:56;31.50;55.20
13123;DHT22;6627;50.920;12.050;2023-07-08T13:05:26;31.60;52.30
13123;DHT22;6627;50.920;12.050;2023-07-08T13:07:53;31.70;50.80
13123;DHT22;6627;50.920;12.050;2023-07-08T13:10:25;31.50;52.00
13123;DHT22;6627;50.920;12.050;2023-07-08T13:12:58;31.60;51.80
13123;DHT22;6627;50.920;12.050;2023-07-08T13:15:29;31.70;54.10
13123;DHT22;6627;50.920;12.050;2023-07-08T13:18:02;31.70;49.00
13123;DHT22;6627;50.920;12.050;2023-07-08T13:20:29;31.80;49.90
13123;DHT22;6627;50.920;12.050;2023-07-08T13:23:00;31.70;50.10
13123;DHT22;6627;50.920;12.050;2023-07-08T13:25:31;31.70;52.00
13123;DHT22;6627;50.920;12.050;2023-07-08T13:28:00;31.40;48.80
13123;DHT22;6627;50.920;12.050;2023-07-08T13:30:30;31.20;48.70
13123;DHT22;6627;50.920;12.050;2023-07-08T13:32:59;31.10;50.30
13123;DHT22;6627;50.920;12.050;2023-07-08T13:35:33;31.20;54.80
13123;DHT22;6627;50.920;12.050;2023-07-08T13:38:03;30.80;53.30
13123;DHT22;6627;50.920;12.050;2023-07-08T13:40:31;30.50;55.00
13123;DHT22;6627;50.920;12.050;2023-07-08T13:42:59;30.40;58.20
13123;DHT22;6627;50.920;12.050;2023-07-08T13:45:29;30.50;59.00
13123;DHT22;6627;50.920;12.050;2023-07-08T13:48:00;30.70;53.00
13123;DHT22;6627;50.920;12.050;2023-07-08T13:50:35;31.00;53.50
13123;DHT22;6627;50.920;12.050;2023-07-08T13:53:17;31.20;50.80
13123;DHT22;6627;50.920;12.050;2023-07-08T13:55:57;31.20;53.50
13123;DHT22;6627;50.920;12.050;2023-07-08T13:58:28;31.40;52.50
13123;DHT22;6627;50.920;12.050;2023-07-08T14:00:57;31.60;52.10
13123;DHT22;6627;50.920;12.050;2023-07-08T14:03:25;31.70;50.90
13123;DHT22;6627;50.920;12.050;2023-07-08T14:05:53;31.50;48.40
13123;DHT22;6627;50.920;12.050;2023-07-08T14:08:20;31.50;49.30
13123;DHT22;6627;50.920;12.050;2023-07-08T14:10:49;31.60;50.70
13123;DHT22;6627;50.920;12.050;2023-07-08T14:15:45;31.70;49.80
13123;DHT22;6627;50.920;12.050;2023-07-08T14:18:12;31.80;49.20
13123;DHT22;6627;50.920;12.050;2023-07-08T14:20:40;31.90;51.10
13123;DHT22;6627;50.920;12.050;2023-07-08T14:23:09;32.00;50.80
13123;DHT22;6627;50.920;12.050;2023-07-08T14:25:39;32.00;52.40
13123;DHT22;6627;50.920;12.050;2023-07-08T14:28:08;32.00;52.40
13123;DHT22;6627;50.920;12.050;2023-07-08T14:30:40;31.80;51.20
13123;DHT22;6627;50.920;12.050;2023-07-08T14:33:11;32.00;48.90
13123;DHT22;6627;50.920;12.050;2023-07-08T14:35:39;32.00;48.70
13123;DHT22;6627;50.920;12.050;2023-07-08T14:38:10;32.10;50.80
13123;DHT22;6627;50.920;12.050;2023-07-08T14:40:38;31.80;46.30
13123;DHT22;6627;50.920;12.050;2023-07-08T14:43:15;32.00;49.90
13123;DHT22;6627;50.920;12.050;2023-07-08T14:45:49;32.00;46.70
13123;DHT22;6627;50.920;12.050;2023-07-08T14:48:17;31.80;47.10
13123;DHT22;6627;50.920;12.050;2023-07-08T14:50:45;31.90;44.90
13123;DHT22;6627;50.920;12.050;2023-07-08T14:53:13;31.70;45.90
13123;DHT22;6627;50.920;12.050;2023-07-08T14:55:42;31.80;46.40
13123;DHT22;6627;50.920;12.050;2023-07-08T14:58:17;31.80;44.40
13123;DHT22;6627;50.920;12.050;2023-07-08T15:00:49;31.80;45.90
13123;DHT22;6627;50.920;12.050;2023-07-08T15:03:17;31.80;46.20
13123;DHT22;6627;50.920;12.050;2023-07-08T15:05:44;31.70;44.70
13123;DHT22;6627;50.920;12.050;2023-07-08T15:08:11;31.80;47.00
13123;DHT22;6627;50.920;12.050;2023-07-08T15:10:41;32.00;49.60
13123;DHT22;6627;50.920;12.050;2023-07-08T15:13:13;32.00;49.70
13123;DHT22;6627;50.920;12.050;2023-07-08T15:18:12;31.90;48.70
13123;DHT22;6627;50.920;12.050;2023-07-08T15:20:41;31.80;47.10
13123;DHT22;6627;50.920;12.050;2023-07-08T15:23:09;31.90;49.40
13123;DHT22;6627;50.920;12.050;2023-07-08T15:25:39;31.90;48.30
13123;DHT22;6627;50.920;12.050;2023-07-08T15:28:16;31.90;48.30
13123;DHT22;6627;50.920;12.050;2023-07-08T15:30:46;31.80;49.20
13123;DHT22;6627;50.920;12.050;2023-07-08T15:33:15;31.50;48.40
13123;DHT22;6627;50.920;12.050;2023-07-08T15:35:42;31.70;48.80
13123;DHT22;6627;50.920;12.050;2023-07-08T15:38:10;31.60;48.70
13123;DHT22;6627;50.920;12.050;2023-07-08T15:40:38;31.60;52.60
13123;DHT22;6627;50.920;12.050;2023-07-08T15:43:11;31.60;53.90
13123;DHT22;6627;50.920;12.050;2023-07-08T15:45:42;31.40;52.10
13123;DHT22;6627;50.920;12.050;2023-07-08T15:48:12;31.50;52.00
13123;DHT22;6627;50.920;12.050;2023-07-08T15:50:40;31.50;50.80
13123;DHT22;6627;50.920;12.050;2023-07-08T15:53:08;31.50;52.40
13123;DHT22;6627;50.920;12.050;2023-07-08T15:55:38;31.50;52.10
13123;DHT22;6627;50.920;12.050;2023-07-08T15:58:10;31.50;54.30
13123;DHT22;6627;50.920;12.050;2023-07-08T16:00:42;31.50;49.50
13123;DHT22;6627;50.920;12.050;2023-07-08T16:03:18;31.30;52.10
13123;DHT22;6627;50.920;12.050;2023-07-08T16:05:59;31.50;52.10
13123;DHT22;6627;50.920;12.050;2023-07-08T16:08:27;31.50;51.10
13123;DHT22;6627;50.920;12.050;2023-07-08T16:10:56;31.40;49.00
13123;DHT22;6627;50.920;12.050;2023-07-08T16:13:27;31.30;52.00
13123;DHT22;6627;50.920;12.050;2023-07-08T16:16:00;31.40;50.80
13123;DHT22;6627;50.920;12.050;2023-07-08T16:18:29;31.50;51.70
13123;DHT22;6627;50.920;12.050;2023-07-08T16:20:56;31.50;49.60
13123;DHT22;6627;50.920;12.050;2023-07-08T16:23:23;31.50;49.40
13123;DHT22;6627;50.920;12.050;2023-07-08T16:25:51;31.40;49.40
13123;DHT22;6627;50.920;12.050;2023-07-08T16:28:25;31.30;49.00
13123;DHT22;6627;50.920;12.050;2023-07-08T16:30:55;31.40;48.80
13123;DHT22;6627;50.920;12.050;2023-07-08T16:35:52;31.30;50.50
13123;DHT22;6627;50.920;12.050;2023-07-08T16:38:19;31.30;52.60
13123;DHT22;6627;50.920;12.050;2023-07-08T16:40:46;31.20;51.90
13123;DHT22;6627;50.920;12.050;2023-07-08T16:43:21;31.00;53.70
13123;DHT22;6627;50.920;12.050;2023-07-08T16:45:51;30.80;53.80
13123;DHT22;6627;50.920;12.050;2023-07-08T16:48:18;31.00;52.60
13123;DHT22;6627;50.920;12.050;2023-07-08T16:50:47;31.10;50.70
13123;DHT22;6627;50.920;12.050;2023-07-08T16:53:14;31.20;49.90
13123;DHT22;6627;50.920;12.050;2023-07-08T16:55:42;31.10;49.60
13123;DHT22;6627;50.920;12.050;2023-07-08T16:58:09;31.00;53.60
13123;DHT22;6627;50.920;12.050;2023-07-08T17:00:41;30.60;53.60
13123;DHT22;6627;50.920;12.050;2023-07-08T17:03:12;30.80;53.30
13123;DHT22;6627;50.920;12.050;2023-07-08T17:05:41;30.90;52.60
13123;DHT22;6627;50.920;12.050;2023-07-08T17:08:12;30.90;53.40